createdAt,value
2022-12-25T00:01:24.912Z,61.39
2022-12-25T00:03:53.371Z,61.35
2022-12-25T00:06:21.416Z,61.82
2022-12-25T00:08:49.308Z,62.19
2022-12-25T00:11:19.929Z,61.13
2022-12-25T00:13:48.036Z,60.70
2022-12-25T00:16:19.648Z,60.49
2022-12-25T00:18:51.688Z,60.40
2022-12-25T00:21:21.423Z,57.88
2022-12-25T00:23:54.648Z,58.21
2022-12-25T00:26:23.307Z,62.56
2022-12-25T00:28:55.846Z,63.98
2022-12-25T00:31:25.060Z,61.98
2022-12-25T00:33:53.494Z,60.70
2022-12-25T00:36:23.089Z,59.80
2022-12-25T00:38:51.174Z,57.23
2022-12-25T00:41:42.244Z,57.55
2022-12-25T00:44:13.645Z,59.39
2022-12-25T00:46:42.402Z,65.87
2022-12-25T00:49:11.230Z,65.94
2022-12-25T00:51:40.995Z,62.64
2022-12-25T00:54:09.344Z,60.76
2022-12-25T00:56:37.422Z,57.91
2022-12-25T00:59:05.545Z,57.70
2022-12-25T01:01:33.790Z,62.96
2022-12-25T01:04:01.788Z,64.90
2022-12-25T01:06:30.208Z,62.24
2022-12-25T01:09:17.368Z,60.69
2022-12-25T01:11:45.556Z,60.18
2022-12-25T01:14:13.919Z,57.99
2022-12-25T01:16:44.627Z,58.22
2022-12-25T01:19:12.742Z,63.40
2022-12-25T01:21:40.622Z,64.41
2022-12-25T01:24:08.589Z,62.88
2022-12-25T01:26:36.737Z,61.89
2022-12-25T01:29:04.715Z,61.28
2022-12-25T01:31:32.840Z,60.99
2022-12-25T01:34:00.792Z,60.72
2022-12-25T01:36:28.709Z,59.61
2022-12-25T01:38:56.768Z,57.48
2022-12-25T01:41:25.635Z,59.07
2022-12-25T01:43:56.704Z,63.97
2022-12-25T01:46:24.962Z,65.42
2022-12-25T01:48:56.360Z,62.26
2022-12-25T01:51:30.159Z,60.26
2022-12-25T01:54:02.158Z,57.22
2022-12-25T01:56:31.567Z,58.90
2022-12-25T01:59:00.654Z,64.78
2022-12-25T02:01:28.711Z,64.68
2022-12-25T02:04:06.787Z,61.44
2022-12-25T02:06:35.719Z,61.01
2022-12-25T02:09:04.455Z,60.41
2022-12-25T02:11:51.123Z,59.70
2022-12-25T02:14:19.224Z,58.73
2022-12-25T02:16:56.620Z,62.53
2022-12-25T02:19:53.993Z,63.61
2022-12-25T02:22:41.019Z,62.20
2022-12-25T02:25:31.956Z,62.14
2022-12-25T02:27:59.840Z,60.87
2022-12-25T02:30:34.847Z,60.27
2022-12-25T02:33:27.910Z,60.31
2022-12-25T02:35:59.952Z,60.36
2022-12-25T02:39:09.201Z,60.59
2022-12-25T02:41:40.937Z,60.73
2022-12-25T02:44:34.588Z,57.98
2022-12-25T02:47:27.136Z,58.17
2022-12-25T02:50:15.757Z,64.74
2022-12-25T02:53:05.893Z,63.72
2022-12-25T02:55:57.409Z,60.61
2022-12-25T02:58:45.874Z,56.88
2022-12-25T03:01:37.402Z,58.76
2022-12-25T03:04:29.731Z,64.61
2022-12-25T03:07:06.480Z,63.63
2022-12-25T03:10:23.090Z,61.51
2022-12-25T03:12:59.562Z,60.54
2022-12-25T03:16:12.137Z,59.79
2022-12-25T03:18:40.253Z,57.58
2022-12-25T03:21:26.841Z,58.74
2022-12-25T03:24:18.890Z,64.05
2022-12-25T03:26:55.836Z,64.80
2022-12-25T03:29:48.133Z,61.44
2022-12-25T03:32:58.739Z,60.62
2022-12-25T03:35:32.749Z,60.37
2022-12-25T03:38:41.723Z,58.53
2022-12-25T03:41:44.733Z,57.89
2022-12-25T03:44:54.175Z,64.67
2022-12-25T03:47:58.690Z,64.99
2022-12-25T03:50:53.599Z,62.74
2022-12-25T03:53:47.183Z,61.63
2022-12-25T03:56:37.038Z,60.12
2022-12-25T03:59:24.369Z,58.36
2022-12-25T04:02:11.322Z,58.95
2022-12-25T04:09:24.670Z,63.78
2022-12-25T04:12:38.131Z,62.43
2022-12-25T04:15:25.164Z,61.21
2022-12-25T04:22:53.207Z,58.14
2022-12-25T04:25:39.727Z,57.41
2022-12-25T04:28:26.170Z,59.75
2022-12-25T04:31:12.646Z,66.25
2022-12-25T04:33:59.298Z,65.92
2022-12-25T04:36:27.215Z,62.36
2022-12-25T04:38:55.157Z,60.45
2022-12-25T04:41:23.093Z,58.23
2022-12-25T04:43:51.015Z,57.81
2022-12-25T04:46:18.949Z,60.44
2022-12-25T04:48:46.987Z,66.04
2022-12-25T04:51:23.620Z,66.95
2022-12-25T04:53:53.440Z,63.31
2022-12-25T04:56:21.877Z,61.92
2022-12-25T04:58:49.855Z,61.28
2022-12-25T05:01:17.943Z,60.63
2022-12-25T05:03:46.169Z,60.09
2022-12-25T05:06:14.210Z,58.13
2022-12-25T05:09:08.370Z,58.51
2022-12-25T05:11:36.403Z,63.82
2022-12-25T05:14:04.463Z,63.97
2022-12-25T05:16:32.609Z,61.26
2022-12-25T05:19:00.536Z,59.57
2022-12-25T05:21:28.549Z,58.29
2022-12-25T05:23:56.561Z,60.59
2022-12-25T05:26:26.309Z,65.81
2022-12-25T05:28:55.065Z,65.73
2022-12-25T05:31:23.038Z,63.70
2022-12-25T05:33:52.021Z,62.10
2022-12-25T05:36:20.018Z,60.98
2022-12-25T05:38:47.958Z,60.18
2022-12-25T05:41:16.101Z,58.16
2022-12-25T05:43:44.046Z,58.02
2022-12-25T05:46:13.890Z,59.50
2022-12-25T05:53:32.402Z,64.53
2022-12-25T05:56:03.252Z,61.12
2022-12-25T05:58:32.918Z,58.66
2022-12-25T06:01:00.955Z,58.92
2022-12-25T06:03:29.086Z,60.55
2022-12-25T06:05:57.126Z,66.06
2022-12-25T06:08:25.116Z,66.71
2022-12-25T06:10:53.070Z,63.87
2022-12-25T06:13:20.956Z,61.00
2022-12-25T06:15:48.885Z,58.04
2022-12-25T06:18:16.823Z,59.01
2022-12-25T06:20:44.815Z,60.37
2022-12-25T06:23:12.982Z,66.08
2022-12-25T06:25:41.087Z,66.68
2022-12-25T06:28:09.096Z,63.50
2022-12-25T06:30:37.052Z,61.11
2022-12-25T06:33:05.042Z,58.67
2022-12-25T06:35:33.178Z,59.02
2022-12-25T06:38:01.290Z,63.88
2022-12-25T06:40:29.280Z,65.49
2022-12-25T06:42:57.317Z,63.43
2022-12-25T06:45:25.329Z,61.82
2022-12-25T06:47:53.347Z,60.10
2022-12-25T06:50:21.398Z,57.75
2022-12-25T06:52:49.352Z,57.91
2022-12-25T06:55:17.313Z,59.91
2022-12-25T06:57:45.180Z,65.86
2022-12-25T07:00:16.632Z,66.41
2022-12-25T07:02:48.585Z,64.04
2022-12-25T07:05:16.989Z,62.30
2022-12-25T07:07:44.964Z,61.06
2022-12-25T07:10:12.964Z,60.33
2022-12-25T07:16:59.165Z,59.10
2022-12-25T07:19:27.210Z,65.19
2022-12-25T07:21:57.837Z,66.15
2022-12-25T07:24:26.716Z,63.28
2022-12-25T07:26:54.687Z,61.04
2022-12-25T07:29:50.379Z,58.79
2022-12-25T07:32:19.694Z,58.19
2022-12-25T07:34:47.648Z,63.45
2022-12-25T07:37:15.579Z,65.25
2022-12-25T07:39:43.607Z,62.95
2022-12-25T07:42:11.598Z,60.70
2022-12-25T07:44:39.518Z,58.41
2022-12-25T07:47:07.434Z,58.28
2022-12-25T07:49:36.103Z,60.38
2022-12-25T07:56:54.305Z,64.54
2022-12-25T08:00:43.295Z,62.33
2022-12-25T08:03:11.468Z,61.15
2022-12-25T08:05:39.652Z,57.98
2022-12-25T08:08:07.652Z,57.67
2022-12-25T08:10:36.396Z,59.79
2022-12-25T08:13:14.457Z,65.67
2022-12-25T08:15:50.833Z,65.75
2022-12-25T08:18:21.262Z,62.65
2022-12-25T08:20:51.497Z,60.25
2022-12-25T08:23:19.744Z,57.10
2022-12-25T08:26:09.112Z,57.46
2022-12-25T08:28:37.060Z,59.03
2022-12-25T08:31:23.317Z,65.48
2022-12-25T08:33:54.237Z,64.23
2022-12-25T08:36:22.828Z,61.44
2022-12-25T08:38:50.921Z,60.38
2022-12-25T08:41:18.964Z,57.45
2022-12-25T08:43:47.066Z,57.79
2022-12-25T08:46:15.084Z,59.82
2022-12-25T08:48:46.488Z,65.60
2022-12-25T08:51:17.681Z,66.03
2022-12-25T08:53:47.689Z,62.75
2022-12-25T08:56:16.859Z,58.78
2022-12-25T08:58:45.124Z,56.48
2022-12-25T09:01:13.943Z,58.96
2022-12-25T09:03:43.078Z,63.60
2022-12-25T09:06:16.654Z,64.95
2022-12-25T09:08:49.185Z,61.10
2022-12-25T09:11:19.766Z,57.93
2022-12-25T09:13:48.679Z,58.37
2022-12-25T09:16:21.097Z,60.97
2022-12-25T09:18:49.773Z,65.49
2022-12-25T09:21:18.336Z,62.15
2022-12-25T09:23:46.398Z,58.00
2022-12-25T09:26:18.005Z,57.95
2022-12-25T09:28:52.014Z,59.86
2022-12-25T09:31:22.625Z,65.59
2022-12-25T09:33:51.841Z,65.84
2022-12-25T09:36:23.474Z,61.78
2022-12-25T09:38:52.836Z,57.98
2022-12-25T09:41:58.401Z,59.56
2022-12-25T09:44:32.246Z,61.31
2022-12-25T09:47:05.673Z,66.08
2022-12-25T09:50:04.791Z,64.09
2022-12-25T09:57:22.090Z,58.55
2022-12-25T09:59:56.090Z,59.35
2022-12-25T10:02:47.486Z,62.40
2022-12-25T10:05:55.101Z,66.42
2022-12-25T10:08:38.411Z,62.06
2022-12-25T10:11:37.175Z,57.65
2022-12-25T10:14:22.717Z,57.19
2022-12-25T10:17:18.211Z,60.58
2022-12-25T10:20:05.966Z,66.51
2022-12-25T10:22:44.916Z,61.45
2022-12-25T10:25:22.575Z,57.34
2022-12-25T10:28:02.155Z,59.06
2022-12-25T10:30:58.480Z,61.42
2022-12-25T10:33:27.521Z,66.16
2022-12-25T10:35:55.506Z,61.46
2022-12-25T10:38:23.455Z,57.93
2022-12-25T10:41:19.040Z,58.06
2022-12-25T10:43:51.632Z,59.94
2022-12-25T10:46:21.268Z,65.43
2022-12-25T10:48:56.657Z,64.01
2022-12-25T10:51:32.115Z,58.32
2022-12-25T10:54:02.585Z,57.31
2022-12-25T10:56:30.891Z,58.99
2022-12-25T10:59:11.516Z,63.15
2022-12-25T11:01:39.781Z,63.88
2022-12-25T11:04:20.145Z,57.81
2022-12-25T11:07:15.955Z,55.81
2022-12-25T11:09:53.894Z,57.32
2022-12-25T11:12:53.113Z,59.66
2022-12-25T11:15:43.697Z,63.99
2022-12-25T11:18:30.114Z,62.41
2022-12-25T11:21:01.160Z,55.69
2022-12-25T11:23:31.603Z,52.98
2022-12-25T11:26:10.419Z,51.39
2022-12-25T11:28:40.812Z,49.67
2022-12-25T11:31:21.387Z,48.53
2022-12-25T11:34:08.016Z,47.26
2022-12-25T11:36:51.851Z,46.28
2022-12-25T11:39:29.239Z,45.75
2022-12-25T11:42:05.676Z,45.26
2022-12-25T11:44:44.127Z,44.97
2022-12-25T11:47:27.301Z,45.17
2022-12-25T11:50:01.292Z,44.81
2022-12-25T11:52:32.503Z,45.75
2022-12-25T11:55:15.371Z,45.08
2022-12-25T11:57:57.856Z,44.94
2022-12-25T12:00:35.236Z,44.46
2022-12-25T12:03:16.982Z,44.50
2022-12-25T12:05:52.152Z,44.85
2022-12-25T12:08:20.168Z,43.65
2022-12-25T12:11:00.396Z,43.54
2022-12-25T12:13:44.032Z,43.84
2022-12-25T12:16:39.714Z,43.85
2022-12-25T12:19:13.055Z,43.87
2022-12-25T12:21:44.230Z,45.66
2022-12-25T12:24:19.330Z,46.39
2022-12-25T12:26:59.326Z,46.80
2022-12-25T12:29:30.440Z,47.05
2022-12-25T12:32:03.329Z,47.52
2022-12-25T12:34:35.136Z,48.39
2022-12-25T12:37:18.654Z,48.51
2022-12-25T12:39:58.507Z,48.51
2022-12-25T12:42:48.630Z,48.58
2022-12-25T12:45:37.778Z,48.51
2022-12-25T12:48:16.879Z,48.83
2022-12-25T12:51:06.299Z,48.64
2022-12-25T12:53:43.747Z,48.76
2022-12-25T12:56:20.740Z,49.08
2022-12-25T12:58:54.267Z,49.32
2022-12-25T13:01:50.827Z,49.63
2022-12-25T13:04:44.258Z,48.96
2022-12-25T13:14:17.243Z,46.15
2022-12-25T13:47:35.306Z,37.21
2022-12-25T13:51:01.655Z,37.52
2022-12-25T13:53:48.436Z,37.60
2022-12-25T13:57:04.208Z,37.56
2022-12-25T14:00:14.032Z,37.33
2022-12-25T14:10:19.916Z,37.45
2022-12-25T14:43:26.005Z,46.27
2022-12-25T14:46:06.433Z,48.50
2022-12-25T14:49:24.238Z,50.61
2022-12-25T14:51:52.270Z,51.60
2022-12-25T14:54:23.231Z,54.35
2022-12-25T14:56:53.922Z,55.85
2022-12-25T14:59:26.156Z,57.68
2022-12-25T15:02:01.105Z,58.90
2022-12-25T15:04:37.251Z,60.57
2022-12-25T15:07:28.112Z,65.60
2022-12-25T15:10:57.598Z,69.08
2022-12-25T15:12:59.887Z,66.14
2022-12-25T15:15:29.621Z,60.61
2022-12-25T15:17:59.751Z,57.72
2022-12-25T15:20:33.578Z,58.88
2022-12-25T15:23:18.981Z,60.34
2022-12-25T15:25:48.700Z,67.16
2022-12-25T15:28:16.921Z,69.13
2022-12-25T15:30:45.110Z,64.30
2022-12-25T15:33:15.243Z,58.96
2022-12-25T15:35:44.471Z,59.56
2022-12-25T15:38:13.774Z,60.84
2022-12-25T15:40:42.525Z,64.94
2022-12-25T15:43:39.543Z,68.28
2022-12-25T15:46:03.027Z,65.61
2022-12-25T15:48:49.906Z,62.58
2022-12-25T15:51:17.980Z,58.79
2022-12-25T15:53:46.075Z,58.40
2022-12-25T15:56:15.237Z,60.27
2022-12-25T15:58:43.212Z,65.43
2022-12-25T16:01:19.502Z,68.88
2022-12-25T16:03:54.267Z,65.73
2022-12-25T16:06:22.320Z,62.93
2022-12-25T16:08:50.283Z,60.78
2022-12-25T16:11:18.415Z,57.69
2022-12-25T16:13:46.375Z,56.85
2022-12-25T16:16:17.558Z,58.21
2022-12-25T16:18:47.538Z,60.42
2022-12-25T16:21:23.393Z,66.89
2022-12-25T16:23:58.114Z,67.17
2022-12-25T16:26:34.843Z,64.81
2022-12-25T16:29:07.780Z,63.81
2022-12-25T16:31:37.819Z,60.97
2022-12-25T16:34:07.317Z,58.88
2022-12-25T16:36:36.466Z,58.34
2022-12-25T16:39:05.037Z,59.54
2022-12-25T16:41:33.287Z,64.49
2022-12-25T16:44:09.497Z,67.19
2022-12-25T16:51:30.277Z,61.51
2022-12-25T16:53:58.442Z,58.55
2022-12-25T16:56:28.448Z,57.68
2022-12-25T16:58:58.083Z,60.12
2022-12-25T17:01:26.158Z,65.71
2022-12-25T17:03:55.164Z,65.94
2022-12-25T17:06:27.020Z,62.97
2022-12-25T17:08:58.997Z,58.47
2022-12-25T17:11:30.024Z,56.75
2022-12-25T17:14:02.113Z,59.33
2022-12-25T17:16:35.402Z,64.91
2022-12-25T17:19:12.997Z,66.16
2022-12-25T17:21:40.932Z,62.40
2022-12-25T17:24:09.402Z,58.13
2022-12-25T17:26:40.727Z,56.81
2022-12-25T17:29:08.922Z,58.29
2022-12-25T17:31:38.178Z,64.08
2022-12-25T17:34:09.652Z,65.87
2022-12-25T17:36:37.724Z,62.35
2022-12-25T17:39:06.611Z,58.27
2022-12-25T17:41:34.656Z,57.57
2022-12-25T17:44:02.670Z,59.62
2022-12-25T17:46:31.522Z,65.11
2022-12-25T17:49:00.875Z,65.11
2022-12-25T17:51:30.534Z,59.75
2022-12-25T17:54:06.137Z,56.54
2022-12-25T17:56:34.417Z,58.23
2022-12-25T17:59:06.843Z,59.94
2022-12-25T18:01:38.452Z,65.89
2022-12-25T18:04:07.539Z,67.17
2022-12-25T18:06:36.947Z,63.49
2022-12-25T18:09:06.991Z,60.87
2022-12-25T18:11:39.709Z,57.48
2022-12-25T18:14:15.294Z,57.42
2022-12-25T18:16:45.333Z,59.43
2022-12-25T18:19:14.729Z,65.84
2022-12-25T18:21:42.899Z,65.37
2022-12-25T18:24:37.677Z,62.61
2022-12-25T18:27:05.691Z,60.91
2022-12-25T18:29:33.774Z,56.73
2022-12-25T18:32:01.845Z,56.83
2022-12-25T18:34:29.902Z,58.50
2022-12-25T18:37:03.052Z,64.28
2022-12-25T18:39:32.901Z,65.67
2022-12-25T18:42:19.430Z,62.01
2022-12-25T18:44:50.493Z,57.53
2022-12-25T18:47:18.628Z,57.08
2022-12-25T18:49:46.757Z,60.68
2022-12-25T18:52:48.335Z,65.79
2022-12-25T18:55:03.476Z,65.11
2022-12-25T18:57:32.883Z,61.40
2022-12-25T19:00:03.109Z,56.55
2022-12-25T19:02:31.110Z,56.63
2022-12-25T19:04:59.257Z,58.51
2022-12-25T19:07:27.260Z,64.38
2022-12-25T19:09:55.222Z,65.19
2022-12-25T19:12:23.851Z,60.80
2022-12-25T19:14:51.990Z,57.56
2022-12-25T19:17:19.970Z,56.97
2022-12-25T19:19:49.146Z,59.15
2022-12-25T19:22:17.103Z,64.57
2022-12-25T19:24:45.048Z,65.21
2022-12-25T19:27:12.997Z,61.52
2022-12-25T19:29:43.088Z,57.46
2022-12-25T19:32:11.150Z,56.48
2022-12-25T19:34:39.229Z,58.51
2022-12-25T19:37:10.730Z,63.85
2022-12-25T19:39:39.927Z,64.86
2022-12-25T19:42:07.841Z,61.36
2022-12-25T19:44:36.117Z,57.40
2022-12-25T19:47:04.148Z,56.06
2022-12-25T19:49:32.213Z,58.38
2022-12-25T19:52:06.019Z,60.26
2022-12-25T19:54:34.129Z,66.57
2022-12-25T19:57:02.315Z,64.88
2022-12-25T19:59:33.684Z,62.30
2022-12-25T20:02:01.769Z,57.99
2022-12-25T20:04:29.940Z,56.96
2022-12-25T20:06:59.029Z,59.16
2022-12-25T20:09:27.064Z,64.67
2022-12-25T20:11:55.039Z,65.49
2022-12-25T20:15:16.409Z,61.66
2022-12-25T20:17:47.065Z,57.40
2022-12-25T20:20:14.951Z,57.95
2022-12-25T20:22:42.898Z,61.80
2022-12-25T20:25:11.492Z,66.32
2022-12-25T20:27:39.543Z,66.01
2022-12-25T20:30:13.452Z,63.06
2022-12-25T20:32:46.454Z,60.61
2022-12-25T20:35:18.006Z,57.20
2022-12-25T20:37:46.074Z,57.87
2022-12-25T20:40:14.034Z,59.66
2022-12-25T20:43:33.450Z,64.89
2022-12-25T20:46:01.499Z,64.58
2022-12-25T20:48:29.648Z,60.76
2022-12-25T20:51:12.038Z,57.64
2022-12-25T20:53:40.970Z,58.23
2022-12-25T20:56:12.197Z,61.95
2022-12-25T20:58:41.100Z,66.05
2022-12-25T21:01:15.222Z,63.38
2022-12-25T21:03:44.345Z,60.15
2022-12-25T21:06:13.281Z,58.32
2022-12-25T21:08:44.576Z,58.15
2022-12-25T21:11:14.229Z,63.30
2022-12-25T21:13:45.360Z,63.97
2022-12-25T21:16:18.475Z,61.56
2022-12-25T21:18:47.834Z,58.59
2022-12-25T21:22:10.463Z,59.57
2022-12-25T21:24:38.516Z,64.42
2022-12-25T21:27:06.464Z,63.97
2022-12-25T21:29:34.485Z,61.85
2022-12-25T21:32:20.983Z,58.90
2022-12-25T21:34:49.662Z,58.60
2022-12-25T21:37:21.432Z,63.62
2022-12-25T21:39:50.688Z,64.50
2022-12-25T21:42:18.682Z,61.97
2022-12-25T21:44:48.130Z,60.36
2022-12-25T21:47:17.254Z,57.55
2022-12-25T21:50:03.882Z,57.31
2022-12-25T21:52:32.823Z,58.44
2022-12-25T21:55:00.825Z,65.01
2022-12-25T21:57:28.801Z,65.54
2022-12-25T21:59:58.748Z,61.97
2022-12-25T22:02:27.280Z,57.43
2022-12-25T22:04:56.427Z,56.89
2022-12-25T22:07:24.374Z,59.81
2022-12-25T22:09:52.427Z,64.55
2022-12-25T22:12:39.981Z,65.17
2022-12-25T22:15:10.123Z,61.09
2022-12-25T22:18:02.038Z,58.07
2022-12-25T22:20:34.875Z,57.92
2022-12-25T22:23:03.824Z,60.10
2022-12-25T22:25:31.986Z,64.86
2022-12-25T22:28:00.327Z,66.17
2022-12-25T22:30:29.376Z,64.06
2022-12-25T22:32:57.688Z,61.98
2022-12-25T22:35:25.684Z,60.34
2022-12-25T22:37:54.176Z,57.54
2022-12-25T22:40:22.233Z,57.42
2022-12-25T22:42:53.655Z,59.26
2022-12-25T22:45:21.569Z,64.45
2022-12-25T22:47:49.598Z,65.04
2022-12-25T22:50:17.631Z,61.70
2022-12-25T22:52:46.624Z,60.64
2022-12-25T22:55:18.696Z,57.50
2022-12-25T22:57:46.786Z,57.43
2022-12-25T23:00:14.876Z,59.18
2022-12-25T23:02:43.110Z,63.75
2022-12-25T23:05:11.264Z,65.61
2022-12-25T23:07:40.428Z,63.35
2022-12-25T23:10:08.792Z,60.55
2022-12-25T23:12:55.348Z,56.19
2022-12-25T23:15:23.298Z,55.69
2022-12-25T23:18:10.045Z,58.36
2022-12-25T23:20:56.574Z,63.12
2022-12-25T23:23:43.104Z,64.84
2022-12-25T23:26:11.453Z,58.95
2022-12-25T23:29:00.491Z,55.97
2022-12-25T23:31:32.574Z,57.27
2022-12-25T23:34:01.520Z,59.46
2022-12-25T23:36:29.665Z,65.30
2022-12-25T23:39:01.596Z,65.69
2022-12-25T23:41:33.028Z,62.05
2022-12-25T23:44:00.961Z,57.87
2022-12-25T23:46:29.053Z,56.75
2022-12-25T23:48:57.430Z,57.95
2022-12-25T23:51:25.358Z,64.83
2022-12-25T23:53:53.305Z,65.71
2022-12-25T23:56:31.245Z,60.74
2022-12-25T23:58:59.380Z,56.07
